Time;durP1;ratioP1;P1;durP2;ratioP2;P2;SDS_P1;SDS_P2;PMS_P1;PMS_P2;Temp;Humidity;BMP_temperature;BMP_pressure;BME280_temperature;BME280_humidity;BME280_pressure;Samples;Min_cycle;Max_cycle;Signal;HPM_P1;HPM_P2
2023/05/12 00:00:39;;;;;;;12.27;6.30;;;;;;;;;;5050875;28;20058;-68
2023/05/12 00:03:05;;;;;;;10.35;5.65;;;;;;;;;;5050944;28;20426;-69
2023/05/12 00:05:31;;;;;;;10.60;5.20;;;;;;;;;;5050656;28;20441;-69
2023/05/12 00:07:57;;;;;;;8.98;5.22;;;;;;;;;;5050145;28;20055;-69
2023/05/12 00:10:23;;;;;;;12.50;5.53;;;;;;;;;;5050968;28;20021;-69
2023/05/12 00:12:48;;;;;;;8.40;4.60;;;;;;;;;;5051090;28;20433;-69
2023/05/12 00:15:14;;;;;;;12.85;5.63;;;;;;;;;;5048426;28;20380;-70
2023/05/12 00:17:40;;;;;;;7.72;4.70;;;;;;;;;;5043397;28;20029;-70
2023/05/12 00:20:06;;;;;;;15.15;5.70;;;;;;;;;;5050466;28;20033;-70
2023/05/12 00:22:32;;;;;;;11.40;5.55;;;;;;;;;;5050930;28;20041;-69
2023/05/12 00:24:57;;;;;;;9.07;4.72;;;;;;;;;;5050430;28;20029;-69
2023/05/12 00:27:23;;;;;;;11.65;5.75;;;;;;;;;;5050702;28;20055;-69
2023/05/12 00:29:49;;;;;;;8.75;5.05;;;;;;;;;;5049990;28;20021;-69
2023/05/12 00:32:14;;;;;;;10.88;5.35;;;;;;;;;;5050772;28;20041;-69
2023/05/12 00:34:41;;;;;;;17.58;6.60;;;;;;;;;;5040327;28;20117;-68
2023/05/12 00:37:07;;;;;;;12.63;6.10;;;;;;;;;;5029098;28;20156;-70
2023/05/12 00:39:32;;;;;;;9.88;5.88;;;;;;;;;;5048098;28;20021;-68
2023/05/12 00:41:59;;;;;;;9.68;5.18;;;;;;;;;;5064275;28;20060;-69
2023/05/12 00:44:24;;;;;;;8.52;4.72;;;;;;;;;;5050226;28;20031;-68
2023/05/12 00:46:51;;;;;;;8.00;4.90;;;;;;;;;;5048560;28;20040;-69
2023/05/12 00:49:17;;;;;;;9.98;5.30;;;;;;;;;;5049796;28;20402;-70
2023/05/12 00:51:44;;;;;;;9.13;4.88;;;;;;;;;;5049357;28;20037;-69
2023/05/12 00:54:10;;;;;;;9.63;5.30;;;;;;;;;;5052402;28;20482;-69
2023/05/12 00:56:38;;;;;;;12.02;5.45;;;;;;;;;;5056120;28;20126;-69
2023/05/12 00:59:06;;;;;;;9.32;5.20;;;;;;;;;;5055361;28;20027;-69
2023/05/12 01:01:33;;;;;;;9.13;5.50;;;;;;;;;;5055711;28;20083;-69
2023/05/12 01:04:01;;;;;;;11.35;5.60;;;;;;;;;;5057147;28;20028;-69
2023/05/12 01:07:08;;;;;;;13.23;5.40;;;;;;;;;;5055957;28;20040;-69
2023/05/12 01:09:35;;;;;;;11.57;5.30;;;;;;;;;;4959992;28;20576;-69
2023/05/12 01:12:01;;;;;;;10.30;5.18;;;;;;;;;;5058464;28;20040;-69
2023/05/12 01:14:28;;;;;;;9.43;5.07;;;;;;;;;;5040545;28;20388;-69
2023/05/12 01:16:58;;;;;;;8.65;5.63;;;;;;;;;;5058595;28;20074;-69
2023/05/12 01:19:27;;;;;;;8.85;5.72;;;;;;;;;;5056782;28;20112;-69
2023/05/12 01:21:53;;;;;;;9.77;5.22;;;;;;;;;;5058417;28;20401;-69
2023/05/12 01:24:26;;;;;;;11.85;5.25;;;;;;;;;;5056738;28;20486;-69
2023/05/12 01:26:52;;;;;;;9.32;5.70;;;;;;;;;;5047858;28;20033;-69
2023/05/12 01:29:18;;;;;;;8.63;5.43;;;;;;;;;;5047666;28;20406;-69
2023/05/12 01:31:45;;;;;;;7.97;5.32;;;;;;;;;;5057777;28;20041;-69
2023/05/12 01:34:15;;;;;;;12.50;6.05;;;;;;;;;;5057136;28;20044;-69
2023/05/12 01:36:40;;;;;;;10.98;5.95;;;;;;;;;;5056996;28;20090;-69
2023/05/12 01:39:06;;;;;;;10.63;6.25;;;;;;;;;;5057423;28;20036;-69
2023/05/12 01:41:32;;;;;;;10.77;5.72;;;;;;;;;;5057606;28;20029;-69
2023/05/12 01:43:57;;;;;;;11.10;5.70;;;;;;;;;;5056523;28;20025;-69
2023/05/12 01:46:24;;;;;;;15.50;6.90;;;;;;;;;;5040043;28;20128;-69
2023/05/12 01:48:52;;;;;;;10.07;5.40;;;;;;;;;;5056109;28;20036;-70
2023/05/12 01:51:18;;;;;;;12.30;6.03;;;;;;;;;;5056189;28;20444;-70
2023/05/12 01:53:43;;;;;;;10.00;5.47;;;;;;;;;;5056077;28;20947;-70
2023/05/12 01:56:09;;;;;;;9.00;5.88;;;;;;;;;;5057277;28;20083;-70
2023/05/12 01:58:36;;;;;;;12.40;6.13;;;;;;;;;;5056026;28;20390;-70
2023/05/12 02:01:02;;;;;;;10.02;5.95;;;;;;;;;;5056062;28;20497;-70
2023/05/12 02:03:28;;;;;;;10.52;6.28;;;;;;;;;;5055544;28;20117;-70
2023/05/12 02:05:56;;;;;;;12.57;6.78;;;;;;;;;;5058873;28;20044;-69
2023/05/12 02:08:21;;;;;;;12.45;7.63;;;;;;;;;;5046963;28;20033;-69
2023/05/12 02:10:47;;;;;;;12.65;6.97;;;;;;;;;;5016955;28;20049;-70
2023/05/12 02:13:13;;;;;;;15.88;7.72;;;;;;;;;;5052458;28;20383;-69
2023/05/12 02:15:39;;;;;;;14.88;7.80;;;;;;;;;;5052587;28;20110;-69
2023/05/12 02:18:04;;;;;;;11.27;7.03;;;;;;;;;;5052306;28;20546;-70
2023/05/12 02:20:31;;;;;;;14.90;7.43;;;;;;;;;;5052482;28;20037;-69
2023/05/12 02:22:56;;;;;;;15.07;7.80;;;;;;;;;;5053871;28;20502;-69
2023/05/12 02:25:22;;;;;;;11.77;7.18;;;;;;;;;;5052187;28;20033;-70
2023/05/12 02:27:48;;;;;;;14.05;7.63;;;;;;;;;;5051930;28;20029;-69
2023/05/12 02:30:15;;;;;;;12.55;6.75;;;;;;;;;;5052050;28;20048;-69
2023/05/12 02:32:41;;;;;;;11.85;7.05;;;;;;;;;;5052280;28;20060;-69
2023/05/12 02:35:07;;;;;;;11.02;6.85;;;;;;;;;;5052205;28;20090;-69
2023/05/12 02:37:35;;;;;;;13.35;7.47;;;;;;;;;;5052092;28;20040;-69
2023/05/12 02:40:00;;;;;;;22.20;8.55;;;;;;;;;;5051834;28;20033;-69
2023/05/12 02:42:29;;;;;;;19.63;7.88;;;;;;;;;;5048614;28;20033;-68
2023/05/12 02:44:55;;;;;;;14.70;7.28;;;;;;;;;;5046430;28;20025;-69
2023/05/12 02:47:21;;;;;;;23.13;8.70;;;;;;;;;;5039983;28;20372;-69
2023/05/12 02:49:47;;;;;;;35.90;9.52;;;;;;;;;;5031511;28;20071;-69
2023/05/12 02:52:13;;;;;;;19.05;7.80;;;;;;;;;;5031805;28;20559;-69
2023/05/12 02:54:38;;;;;;;14.23;7.93;;;;;;;;;;5032855;28;20121;-69
2023/05/12 02:57:05;;;;;;;16.17;7.88;;;;;;;;;;5031874;28;20470;-69
2023/05/12 02:59:31;;;;;;;18.80;8.77;;;;;;;;;;5032810;28;20148;-69
2023/05/12 03:01:56;;;;;;;23.15;8.38;;;;;;;;;;5031768;28;20108;-69
2023/05/12 03:04:22;;;;;;;17.88;8.60;;;;;;;;;;5031807;28;20231;-69
2023/05/12 03:06:48;;;;;;;18.58;8.32;;;;;;;;;;5032904;28;20022;-69
2023/05/12 03:09:15;;;;;;;14.75;7.57;;;;;;;;;;5031033;28;20033;-69
2023/05/12 03:11:41;;;;;;;16.13;8.88;;;;;;;;;;5042740;28;20228;-69
2023/05/12 03:14:06;;;;;;;20.92;8.45;;;;;;;;;;5051503;28;20486;-69
2023/05/12 03:16:32;;;;;;;19.90;8.70;;;;;;;;;;5038152;28;20382;-69
2023/05/12 03:18:58;;;;;;;14.32;7.82;;;;;;;;;;5045426;28;20029;-69
2023/05/12 03:21:27;;;;;;;16.05;8.18;;;;;;;;;;5031652;28;20056;-70
2023/05/12 03:23:53;;;;;;;12.05;7.40;;;;;;;;;;5031748;28;20052;-71
2023/05/12 03:26:18;;;;;;;14.68;7.97;;;;;;;;;;5032791;28;20025;-70
2023/05/12 03:28:45;;;;;;;19.13;8.88;;;;;;;;;;5032649;28;20188;-70
2023/05/12 03:31:10;;;;;;;13.57;8.23;;;;;;;;;;5031341;28;20431;-69
2023/05/12 03:33:36;;;;;;;21.13;8.55;;;;;;;;;;5039596;28;20657;-70
2023/05/12 03:36:02;;;;;;;15.75;9.20;;;;;;;;;;5051104;28;20017;-70
2023/05/12 03:38:28;;;;;;;18.30;8.45;;;;;;;;;;5068061;28;20540;-70
2023/05/12 03:41:07;;;;;;;19.38;8.70;;;;;;;;;;5051549;28;20079;-70
2023/05/12 03:43:34;;;;;;;29.10;10.60;;;;;;;;;;5051243;28;20083;-70
2023/05/12 03:46:01;;;;;;;28.10;9.25;;;;;;;;;;5048219;28;20025;-70
2023/05/12 03:48:27;;;;;;;31.67;10.50;;;;;;;;;;5042288;28;20033;-70
2023/05/12 03:50:52;;;;;;;16.98;9.57;;;;;;;;;;5037764;28;20071;-70
2023/05/12 03:53:18;;;;;;;13.50;9.18;;;;;;;;;;5031072;28;20449;-70
2023/05/12 03:55:44;;;;;;;15.77;9.32;;;;;;;;;;5041702;28;20378;-70
2023/05/12 03:58:09;;;;;;;45.00;12.60;;;;;;;;;;5052013;28;20120;-69
2023/05/12 04:00:35;;;;;;;42.42;10.57;;;;;;;;;;5046966;28;20024;-70
2023/05/12 04:03:01;;;;;;;19.25;9.55;;;;;;;;;;5038597;28;20051;-70
2023/05/12 04:05:26;;;;;;;26.65;9.13;;;;;;;;;;5036454;28;20029;-70
2023/05/12 04:07:52;;;;;;;21.65;8.82;;;;;;;;;;5048181;28;20036;-70
2023/05/12 04:10:18;;;;;;;23.23;9.35;;;;;;;;;;5042025;28;20060;-69
2023/05/12 04:12:43;;;;;;;26.38;9.60;;;;;;;;;;5044839;28;20460;-69
2023/05/12 04:15:09;;;;;;;37.40;10.75;;;;;;;;;;5044115;28;20017;-70
2023/05/12 04:17:35;;;;;;;34.95;12.85;;;;;;;;;;5051114;28;20402;-70
2023/05/12 04:20:01;;;;;;;32.83;12.15;;;;;;;;;;5046897;28;20025;-70
2023/05/12 04:22:27;;;;;;;35.17;11.55;;;;;;;;;;5041530;28;20247;-69
2023/05/12 04:24:53;;;;;;;31.70;10.75;;;;;;;;;;5042582;28;20028;-71
2023/05/12 04:27:18;;;;;;;24.58;9.63;;;;;;;;;;5049871;28;20124;-71
2023/05/12 04:29:44;;;;;;;20.17;9.57;;;;;;;;;;5049805;28;20035;-71
2023/05/12 04:32:10;;;;;;;20.70;9.30;;;;;;;;;;5049784;28;20033;-70
2023/05/12 04:34:36;;;;;;;22.10;10.05;;;;;;;;;;5050140;28;20033;-70
2023/05/12 04:37:01;;;;;;;29.08;10.35;;;;;;;;;;5050018;28;20495;-70
2023/05/12 04:39:28;;;;;;;17.92;8.10;;;;;;;;;;5049882;28;20025;-70
2023/05/12 04:41:54;;;;;;;16.63;8.55;;;;;;;;;;5040803;28;20064;-71
2023/05/12 04:44:21;;;;;;;17.92;9.55;;;;;;;;;;5041854;28;20025;-70
2023/05/12 04:46:52;;;;;;;16.20;8.98;;;;;;;;;;5046440;28;20137;-70
2023/05/12 04:49:18;;;;;;;15.27;8.45;;;;;;;;;;5046368;28;20030;-71
2023/05/12 04:51:43;;;;;;;13.50;7.80;;;;;;;;;;5031104;28;20028;-71
2023/05/12 04:54:10;;;;;;;12.73;7.75;;;;;;;;;;5024091;28;20037;-72
2023/05/12 04:56:36;;;;;;;15.63;7.70;;;;;;;;;;5038424;28;20025;-73
2023/05/12 04:59:02;;;;;;;16.08;8.10;;;;;;;;;;5054296;28;20162;-73
2023/05/12 05:01:28;;;;;;;21.83;9.73;;;;;;;;;;5038212;28;20077;-73
2023/05/12 05:03:54;;;;;;;21.35;9.80;;;;;;;;;;5037313;28;20034;-73
2023/05/12 05:06:20;;;;;;;15.43;7.70;;;;;;;;;;5029572;28;20052;-74
2023/05/12 05:08:47;;;;;;;20.27;9.00;;;;;;;;;;5031365;28;20026;-73
2023/05/12 05:11:14;;;;;;;12.13;7.10;;;;;;;;;;5044184;28;20549;-73
2023/05/12 05:13:40;;;;;;;12.73;7.47;;;;;;;;;;5049101;28;20358;-74
2023/05/12 05:16:07;;;;;;;14.35;6.75;;;;;;;;;;5041176;28;20177;-72
2023/05/12 05:18:33;;;;;;;20.67;8.07;;;;;;;;;;5041330;28;20093;-71
2023/05/12 05:20:59;;;;;;;16.92;7.13;;;;;;;;;;5044099;28;20116;-71
2023/05/12 05:23:25;;;;;;;24.48;8.30;;;;;;;;;;5037055;28;20025;-72
2023/05/12 05:25:52;;;;;;;25.23;7.60;;;;;;;;;;5045400;28;20025;-71
2023/05/12 05:28:17;;;;;;;17.95;5.55;;;;;;;;;;5048507;28;20047;-71
2023/05/12 05:30:43;;;;;;;16.58;5.80;;;;;;;;;;5040166;28;20029;-71
2023/05/12 05:33:11;;;;;;;14.68;5.55;;;;;;;;;;5049043;28;20455;-73
2023/05/12 05:35:37;;;;;;;24.45;6.65;;;;;;;;;;5038168;28;20043;-72
2023/05/12 05:38:03;;;;;;;10.73;5.40;;;;;;;;;;5043623;28;20390;-72
2023/05/12 05:40:30;;;;;;;10.32;6.43;;;;;;;;;;5047229;28;20025;-72
2023/05/12 05:42:57;;;;;;;12.57;5.75;;;;;;;;;;5040901;28;20036;-71
2023/05/12 05:45:23;;;;;;;11.23;5.32;;;;;;;;;;5043217;28;20074;-74
2023/05/12 05:47:52;;;;;;;9.40;6.03;;;;;;;;;;5041920;28;20033;-74
2023/05/12 05:50:18;;;;;;;8.57;5.15;;;;;;;;;;5041006;28;20063;-72
2023/05/12 05:52:44;;;;;;;11.32;6.05;;;;;;;;;;5044178;28;20048;-73
2023/05/12 05:55:11;;;;;;;9.80;5.22;;;;;;;;;;5054064;28;20390;-72
2023/05/12 05:57:37;;;;;;;13.88;5.90;;;;;;;;;;5043981;28;20037;-73
2023/05/12 06:00:04;;;;;;;10.30;5.68;;;;;;;;;;5038505;28;20164;-72
2023/05/12 06:02:40;;;;;;;12.65;5.60;;;;;;;;;;5051723;28;20080;-71
2023/05/12 06:05:07;;;;;;;11.75;5.63;;;;;;;;;;5052303;28;20482;-73
2023/05/12 06:07:32;;;;;;;14.27;6.53;;;;;;;;;;5060630;28;20021;-72
2023/05/12 06:10:00;;;;;;;10.48;5.07;;;;;;;;;;5068309;28;20025;-72
2023/05/12 06:12:25;;;;;;;11.45;5.60;;;;;;;;;;5051368;28;20025;-74
2023/05/12 06:14:51;;;;;;;8.85;5.22;;;;;;;;;;5040461;28;20351;-72
2023/05/12 06:17:17;;;;;;;9.27;4.97;;;;;;;;;;5047388;28;20034;-72
2023/05/12 06:19:47;;;;;;;8.65;4.32;;;;;;;;;;5035408;28;20466;-71
2023/05/12 06:22:13;;;;;;;10.15;5.22;;;;;;;;;;5048719;28;20078;-72
2023/05/12 06:24:40;;;;;;;10.40;4.97;;;;;;;;;;5051479;28;20212;-73
2023/05/12 06:27:06;;;;;;;9.68;4.28;;;;;;;;;;5045490;28;20033;-73
2023/05/12 06:29:31;;;;;;;9.00;3.88;;;;;;;;;;5040344;28;20080;-72
2023/05/12 06:31:57;;;;;;;16.52;4.22;;;;;;;;;;5052950;28;20321;-72
2023/05/12 06:34:23;;;;;;;7.47;3.17;;;;;;;;;;5052892;28;20091;-72
2023/05/12 06:36:49;;;;;;;6.60;4.05;;;;;;;;;;5060685;28;20463;-73
2023/05/12 06:39:15;;;;;;;8.55;3.75;;;;;;;;;;5051293;28;20025;-72
2023/05/12 06:41:42;;;;;;;10.50;4.03;;;;;;;;;;5044193;28;20065;-74
2023/05/12 06:44:18;;;;;;;6.05;3.10;;;;;;;;;;5043534;28;20033;-73
2023/05/12 06:46:44;;;;;;;8.52;3.50;;;;;;;;;;5050722;28;20120;-74
2023/05/12 06:49:10;;;;;;;8.52;3.40;;;;;;;;;;5046545;28;20092;-73
2023/05/12 06:51:36;;;;;;;6.60;3.10;;;;;;;;;;5052024;28;20216;-73
2023/05/12 06:54:01;;;;;;;8.90;3.20;;;;;;;;;;5044259;28;20074;-73
2023/05/12 06:56:31;;;;;;;7.30;2.60;;;;;;;;;;5052760;28;20513;-73
2023/05/12 06:58:59;;;;;;;8.43;3.05;;;;;;;;;;5051063;28;20123;-72
2023/05/12 07:01:29;;;;;;;6.88;3.03;;;;;;;;;;5052532;28;20441;-72
2023/05/12 07:03:55;;;;;;;7.15;2.47;;;;;;;;;;5051137;28;20064;-74
2023/05/12 07:06:21;;;;;;;8.07;3.25;;;;;;;;;;5052336;28;20029;-72
2023/05/12 07:08:47;;;;;;;4.03;2.30;;;;;;;;;;5052435;28;20187;-72
2023/05/12 07:11:18;;;;;;;6.78;2.55;;;;;;;;;;5052221;28;20024;-70
2023/05/12 07:13:46;;;;;;;3.65;2.08;;;;;;;;;;5065866;28;20055;-72
2023/05/12 07:16:12;;;;;;;8.07;2.65;;;;;;;;;;5066944;28;20398;-72
2023/05/12 07:18:38;;;;;;;3.70;2.00;;;;;;;;;;5051828;28;20045;-71
2023/05/12 07:21:04;;;;;;;6.45;2.35;;;;;;;;;;5052120;28;20024;-73
2023/05/12 07:23:29;;;;;;;6.00;2.40;;;;;;;;;;5052317;28;20044;-72
2023/05/12 07:25:55;;;;;;;7.72;2.88;;;;;;;;;;5067660;28;20024;-73
2023/05/12 07:28:21;;;;;;;5.93;2.00;;;;;;;;;;5052008;28;20041;-73
2023/05/12 07:30:48;;;;;;;5.45;2.95;;;;;;;;;;5051862;28;20029;-72
2023/05/12 07:33:15;;;;;;;8.23;2.80;;;;;;;;;;5051723;28;20368;-72
2023/05/12 07:35:41;;;;;;;8.45;3.00;;;;;;;;;;5051870;28;20033;-72
2023/05/12 07:38:08;;;;;;;5.95;2.70;;;;;;;;;;5052321;28;20052;-72
2023/05/12 07:40:34;;;;;;;4.57;2.42;;;;;;;;;;5051654;28;20028;-71
2023/05/12 07:43:00;;;;;;;7.03;2.50;;;;;;;;;;5051430;28;20051;-71
2023/05/12 07:45:25;;;;;;;11.10;3.08;;;;;;;;;;5051356;28;20518;-71
2023/05/12 07:47:51;;;;;;;6.00;2.40;;;;;;;;;;5066902;28;20035;-71
2023/05/12 07:50:17;;;;;;;8.77;3.17;;;;;;;;;;5051459;28;20024;-72
2023/05/12 07:52:52;;;;;;;7.18;2.90;;;;;;;;;;5052010;28;20090;-72
2023/05/12 07:55:19;;;;;;;5.57;2.70;;;;;;;;;;5051468;28;20136;-72
2023/05/12 07:57:46;;;;;;;5.45;2.47;;;;;;;;;;5051027;28;20099;-71
2023/05/12 08:00:13;;;;;;;5.00;2.50;;;;;;;;;;5050665;28;20090;-73
2023/05/12 08:02:40;;;;;;;6.32;2.83;;;;;;;;;;5034445;28;20112;-72
2023/05/12 08:05:08;;;;;;;4.18;2.50;;;;;;;;;;5031373;28;20475;-72
2023/05/12 08:07:35;;;;;;;7.10;2.90;;;;;;;;;;5031193;28;20475;-71
2023/05/12 08:10:02;;;;;;;7.93;2.97;;;;;;;;;;5030705;28;20079;-74
2023/05/12 08:12:27;;;;;;;6.18;2.72;;;;;;;;;;5031198;28;20140;-72
2023/05/12 08:14:54;;;;;;;4.88;2.72;;;;;;;;;;5031477;28;20050;-72
2023/05/12 08:17:19;;;;;;;8.10;2.58;;;;;;;;;;5031246;28;20033;-72
2023/05/12 08:19:45;;;;;;;6.50;2.33;;;;;;;;;;5030014;28;20037;-71
2023/05/12 08:22:10;;;;;;;7.80;2.53;;;;;;;;;;5031040;28;20116;-74
2023/05/12 08:24:36;;;;;;;4.38;2.60;;;;;;;;;;5032783;28;20106;-73
2023/05/12 08:27:02;;;;;;;8.13;2.88;;;;;;;;;;5051206;28;20071;-72
2023/05/12 08:29:28;;;;;;;5.93;2.50;;;;;;;;;;5065997;28;20071;-73
2023/05/12 08:31:53;;;;;;;7.38;3.15;;;;;;;;;;5050980;28;20040;-73
2023/05/12 08:34:19;;;;;;;7.70;2.80;;;;;;;;;;5049962;28;20168;-74
2023/05/12 08:36:45;;;;;;;8.35;3.00;;;;;;;;;;5050722;28;20056;-75
2023/05/12 08:39:11;;;;;;;4.97;2.42;;;;;;;;;;5049040;28;20501;-74
2023/05/12 08:41:51;;;;;;;5.47;3.15;;;;;;;;;;5050844;28;20036;-74
2023/05/12 08:44:18;;;;;;;6.03;3.05;;;;;;;;;;5050781;28;20115;-74
2023/05/12 08:46:46;;;;;;;6.82;2.90;;;;;;;;;;5050527;28;20108;-73
2023/05/12 08:49:19;;;;;;;8.15;2.47;;;;;;;;;;5050461;28;20406;-73
2023/05/12 08:51:46;;;;;;;4.80;2.47;;;;;;;;;;5051166;28;20127;-76
2023/05/12 08:54:16;;;;;;;6.53;2.92;;;;;;;;;;5050925;28;20398;-75
2023/05/12 08:56:44;;;;;;;5.65;2.60;;;;;;;;;;5051150;28;20064;-74
2023/05/12 08:59:10;;;;;;;8.30;2.55;;;;;;;;;;5050948;28;20032;-75
2023/05/12 09:01:37;;;;;;;8.13;2.83;;;;;;;;;;5050806;28;20495;-73
2023/05/12 09:04:06;;;;;;;6.75;2.97;;;;;;;;;;5050969;28;20020;-74
2023/05/12 09:06:32;;;;;;;4.65;2.53;;;;;;;;;;5050604;28;20041;-75
2023/05/12 09:08:58;;;;;;;9.40;3.22;;;;;;;;;;5049421;28;20104;-73
2023/05/12 09:11:24;;;;;;;4.13;2.30;;;;;;;;;;5046455;28;20033;-74
2023/05/12 09:14:01;;;;;;;5.03;2.50;;;;;;;;;;5049128;28;20035;-74
2023/05/12 09:16:34;;;;;;;6.95;2.67;;;;;;;;;;5054770;28;20094;-74
2023/05/12 09:19:03;;;;;;;5.68;2.17;;;;;;;;;;5070434;28;20037;-75
2023/05/12 09:21:29;;;;;;;2.50;1.90;;;;;;;;;;5053693;28;20029;-74
2023/05/12 09:23:59;;;;;;;3.65;2.30;;;;;;;;;;5055517;28;20103;-77
2023/05/12 09:26:27;;;;;;;4.25;2.20;;;;;;;;;;5053854;28;20086;-75
2023/05/12 09:29:06;;;;;;;3.70;2.38;;;;;;;;;;5054088;28;20446;-75
2023/05/12 09:31:35;;;;;;;3.95;2.50;;;;;;;;;;5054989;28;20037;-76
2023/05/12 09:34:07;;;;;;;3.58;2.10;;;;;;;;;;5054547;28;20021;-75
2023/05/12 09:36:34;;;;;;;4.13;2.00;;;;;;;;;;5053162;28;20037;-75
2023/05/12 09:39:08;;;;;;;4.15;2.53;;;;;;;;;;5069417;28;20078;-75
2023/05/12 09:41:41;;;;;;;10.77;3.38;;;;;;;;;;5053690;28;20108;-74
2023/05/12 09:44:08;;;;;;;;;;;;;;;;;;5070132;28;20064;-75
2023/05/12 09:46:34;;;;;;;6.00;2.65;;;;;;;;;;5053979;28;19909;-75
2023/05/12 09:49:02;;;;;;;4.78;2.53;;;;;;;;;;5053683;28;20055;-73
2023/05/12 09:51:29;;;;;;;5.68;2.10;;;;;;;;;;5068957;28;20029;-75
2023/05/12 09:53:56;;;;;;;6.90;3.45;;;;;;;;;;5052961;28;20045;-72
2023/05/12 09:56:26;;;;;;;7.13;2.63;;;;;;;;;;5052771;28;20083;-74
2023/05/12 09:58:53;;;;;;;5.40;2.40;;;;;;;;;;5053122;28;20060;-75
2023/05/12 10:01:23;;;;;;;3.88;2.22;;;;;;;;;;5052677;28;20021;-74
2023/05/12 10:03:53;;;;;;;4.13;2.20;;;;;;;;;;5068572;28;20041;-74
2023/05/12 10:06:29;;;;;;;4.40;2.00;;;;;;;;;;5053533;28;20391;-74
2023/05/12 10:09:33;;;;;;;5.68;2.70;;;;;;;;;;5053813;28;20029;-75
2023/05/12 10:12:00;;;;;;;5.68;2.65;;;;;;;;;;5044190;28;20572;-75
2023/05/12 10:14:26;;;;;;;6.20;2.47;;;;;;;;;;5054277;28;20086;-73
2023/05/12 10:16:53;;;;;;;6.10;2.30;;;;;;;;;;5053007;28;20044;-73
2023/05/12 10:19:20;;;;;;;7.20;2.58;;;;;;;;;;5053265;28;20024;-73
2023/05/12 10:21:46;;;;;;;3.42;1.95;;;;;;;;;;5053924;28;20106;-73
2023/05/12 10:24:15;;;;;;;5.43;2.20;;;;;;;;;;5053775;28;20479;-73
2023/05/12 10:26:41;;;;;;;4.30;1.90;;;;;;;;;;5052502;28;20056;-73
2023/05/12 10:29:09;;;;;;;3.60;1.90;;;;;;;;;;5069348;28;20040;-74
2023/05/12 10:31:36;;;;;;;8.60;3.30;;;;;;;;;;5053744;28;20037;-74
2023/05/12 10:34:02;;;;;;;3.75;1.80;;;;;;;;;;5054205;28;20119;-74
2023/05/12 10:36:30;;;;;;;6.30;1.80;;;;;;;;;;5054028;28;20041;-74
2023/05/12 10:39:05;;;;;;;2.38;1.70;;;;;;;;;;5052424;28;20052;-73
2023/05/12 10:41:33;;;;;;;5.00;2.08;;;;;;;;;;5053915;28;20029;-74
2023/05/12 10:44:01;;;;;;;8.00;2.15;;;;;;;;;;5053372;28;20027;-74
2023/05/12 10:46:28;;;;;;;4.57;2.10;;;;;;;;;;5053422;28;20089;-74
2023/05/12 10:49:02;;;;;;;5.72;2.00;;;;;;;;;;5054073;28;20024;-73
2023/05/12 10:51:30;;;;;;;4.78;2.50;;;;;;;;;;5053421;28;20376;-72
2023/05/12 10:54:10;;;;;;;4.40;2.38;;;;;;;;;;5053654;28;20025;-72
2023/05/12 10:56:35;;;;;;;5.30;2.88;;;;;;;;;;5053308;28;20064;-72
2023/05/12 10:59:06;;;;;;;5.07;2.53;;;;;;;;;;5053032;28;20482;-72
2023/05/12 11:01:33;;;;;;;10.15;2.72;;;;;;;;;;5053042;28;20033;-74
2023/05/12 11:04:13;;;;;;;4.28;2.13;;;;;;;;;;5053054;28;20024;-72
2023/05/12 11:06:39;;;;;;;3.72;2.30;;;;;;;;;;5053413;28;20040;-72
2023/05/12 11:09:06;;;;;;;11.23;2.20;;;;;;;;;;5053480;28;20033;-72
2023/05/12 11:11:32;;;;;;;4.07;2.30;;;;;;;;;;5053440;28;20106;-72
2023/05/12 11:13:59;;;;;;;6.25;2.00;;;;;;;;;;5053169;28;20021;-73
2023/05/12 11:16:25;;;;;;;4.25;2.28;;;;;;;;;;5031864;28;20099;-72
2023/05/12 11:19:04;;;;;;;3.72;1.92;;;;;;;;;;5050844;28;20029;-73
2023/05/12 11:21:31;;;;;;;4.40;1.83;;;;;;;;;;5052812;28;20052;-71
2023/05/12 11:23:59;;;;;;;4.95;2.03;;;;;;;;;;5052494;28;20021;-72
2023/05/12 11:26:26;;;;;;;21.25;12.55;;;;;;;;;;5052508;28;20111;-72
2023/05/12 11:28:52;;;;;;;24.73;15.05;;;;;;;;;;5052362;28;20029;-73
2023/05/12 11:31:19;;;;;;;5.47;3.13;;;;;;;;;;5052569;28;20482;-74
2023/05/12 11:33:45;;;;;;;7.32;4.50;;;;;;;;;;5052924;28;20017;-73
2023/05/12 11:36:11;;;;;;;6.03;2.65;;;;;;;;;;5052676;28;20065;-72
2023/05/12 11:38:36;;;;;;;5.45;2.17;;;;;;;;;;5052546;28;20060;-72
2023/05/12 11:41:02;;;;;;;36.25;21.98;;;;;;;;;;5052251;28;20530;-74
2023/05/12 11:43:28;;;;;;;9.32;2.50;;;;;;;;;;5050929;28;20037;-73
2023/05/12 11:45:54;;;;;;;5.72;2.55;;;;;;;;;;5051393;28;20033;-72
2023/05/12 11:48:22;;;;;;;9.52;3.15;;;;;;;;;;5067765;28;20025;-73
2023/05/12 11:50:50;;;;;;;5.00;2.50;;;;;;;;;;5052561;28;20029;-73
2023/05/12 11:53:17;;;;;;;8.02;2.60;;;;;;;;;;5067507;28;20032;-72
2023/05/12 11:55:51;;;;;;;7.22;2.28;;;;;;;;;;5052380;28;20044;-71
2023/05/12 11:58:29;;;;;;;8.75;2.70;;;;;;;;;;5052068;28;20028;-72
2023/05/12 12:00:56;;;;;;;7.38;3.00;;;;;;;;;;5066212;28;20033;-72
2023/05/12 12:03:23;;;;;;;5.00;2.50;;;;;;;;;;5051658;28;20040;-73
2023/05/12 12:06:00;;;;;;;6.18;2.38;;;;;;;;;;5040753;28;20044;-72
2023/05/12 12:08:26;;;;;;;10.50;4.28;;;;;;;;;;5051693;28;20050;-74
2023/05/12 12:10:52;;;;;;;4.15;2.00;;;;;;;;;;5051679;28;20368;-72
2023/05/12 12:13:22;;;;;;;3.80;2.50;;;;;;;;;;5052328;28;20037;-74
2023/05/12 12:15:49;;;;;;;7.32;3.13;;;;;;;;;;5050804;28;20445;-72
2023/05/12 12:18:15;;;;;;;7.57;2.75;;;;;;;;;;5051146;28;20036;-73
2023/05/12 12:20:42;;;;;;;6.70;2.80;;;;;;;;;;5052092;28;20033;-73
2023/05/12 12:23:08;;;;;;;8.07;2.75;;;;;;;;;;5052055;28;20562;-71
2023/05/12 12:25:34;;;;;;;7.70;3.72;;;;;;;;;;5052145;28;20514;-74
2023/05/12 12:28:00;;;;;;;8.70;3.35;;;;;;;;;;5052402;28;20028;-76
2023/05/12 12:30:26;;;;;;;6.43;2.50;;;;;;;;;;5052558;28;20537;-73
2023/05/12 12:32:52;;;;;;;4.05;2.50;;;;;;;;;;5052653;28;20059;-74
2023/05/12 12:35:18;;;;;;;8.35;4.50;;;;;;;;;;5052112;28;20072;-73
2023/05/12 12:37:50;;;;;;;6.50;3.85;;;;;;;;;;5052250;28;20107;-73
2023/05/12 12:40:16;;;;;;;12.05;2.85;;;;;;;;;;5052593;28;20029;-73
2023/05/12 12:42:41;;;;;;;4.70;2.80;;;;;;;;;;5052165;28;20029;-73
2023/05/12 12:45:08;;;;;;;9.00;3.08;;;;;;;;;;5052141;28;20107;-72
2023/05/12 12:47:35;;;;;;;6.57;3.00;;;;;;;;;;5051578;28;20017;-73
2023/05/12 12:50:03;;;;;;;6.32;3.25;;;;;;;;;;5051173;28;20052;-73
2023/05/12 12:52:28;;;;;;;5.75;3.00;;;;;;;;;;5051281;28;20036;-72
2023/05/12 12:54:55;;;;;;;5.07;2.42;;;;;;;;;;5051418;28;20037;-73
2023/05/12 12:57:21;;;;;;;8.48;3.70;;;;;;;;;;5051458;28;20506;-74
2023/05/12 12:59:48;;;;;;;25.05;14.63;;;;;;;;;;5051939;28;20040;-74
2023/05/12 13:02:13;;;;;;;15.85;9.18;;;;;;;;;;5051242;28;20041;-73
2023/05/12 13:04:39;;;;;;;8.27;3.25;;;;;;;;;;5050323;28;20443;-72
2023/05/12 13:07:05;;;;;;;8.98;3.53;;;;;;;;;;5051758;28;20474;-73
2023/05/12 13:09:31;;;;;;;7.78;3.42;;;;;;;;;;5067245;28;20033;-74
2023/05/12 13:11:57;;;;;;;11.10;4.60;;;;;;;;;;5051408;28;20025;-73
2023/05/12 13:14:23;;;;;;;7.95;3.25;;;;;;;;;;5051285;28;20041;-72
2023/05/12 13:16:50;;;;;;;5.32;2.78;;;;;;;;;;5050182;28;20037;-74
2023/05/12 13:19:16;;;;;;;3.45;2.47;;;;;;;;;;5050992;28;20391;-75
2023/05/12 13:21:41;;;;;;;6.30;3.30;;;;;;;;;;5050884;28;20100;-73
2023/05/12 13:24:07;;;;;;;6.28;3.88;;;;;;;;;;5051331;28;20083;-75
2023/05/12 13:26:33;;;;;;;3.83;2.58;;;;;;;;;;5066842;28;20029;-75
2023/05/12 13:28:58;;;;;;;4.13;2.13;;;;;;;;;;5051935;28;20044;-75
2023/05/12 13:31:24;;;;;;;5.13;2.55;;;;;;;;;;5033617;28;20025;-73
2023/05/12 13:33:50;;;;;;;5.35;2.72;;;;;;;;;;5050745;28;20033;-73
2023/05/12 13:36:16;;;;;;;3.50;2.67;;;;;;;;;;5052339;28;20044;-74
2023/05/12 13:38:44;;;;;;;5.78;2.47;;;;;;;;;;5051146;28;20029;-73
2023/05/12 13:41:10;;;;;;;4.80;3.00;;;;;;;;;;5066384;28;20111;-76
2023/05/12 13:43:36;;;;;;;5.57;2.45;;;;;;;;;;5050982;28;20036;-75
2023/05/12 13:46:01;;;;;;;5.85;2.75;;;;;;;;;;5051262;28;20029;-74
2023/05/12 13:48:28;;;;;;;6.32;2.80;;;;;;;;;;5050741;28;20041;-74
2023/05/12 13:50:53;;;;;;;5.45;2.92;;;;;;;;;;5050796;28;20051;-76
2023/05/12 13:53:20;;;;;;;6.72;2.90;;;;;;;;;;5050955;28;20499;-76
2023/05/12 13:55:47;;;;;;;6.03;2.67;;;;;;;;;;5050888;28;20029;-74
2023/05/12 13:58:13;;;;;;;6.43;2.95;;;;;;;;;;5050804;28;20040;-76
2023/05/12 14:00:38;;;;;;;5.80;2.65;;;;;;;;;;5049647;28;20374;-75
2023/05/12 14:03:04;;;;;;;8.73;2.70;;;;;;;;;;5054005;28;20047;-77
2023/05/12 14:05:31;;;;;;;5.63;2.47;;;;;;;;;;5055604;28;20025;-76
2023/05/12 14:07:56;;;;;;;5.38;2.55;;;;;;;;;;5055435;28;20433;-76
2023/05/12 14:10:22;;;;;;;8.70;2.92;;;;;;;;;;5054685;28;20021;-76
2023/05/12 14:12:48;;;;;;;8.82;2.63;;;;;;;;;;5053795;28;20134;-76
2023/05/12 14:15:15;;;;;;;8.02;2.60;;;;;;;;;;5069787;28;20117;-75
2023/05/12 14:17:41;;;;;;;4.10;2.40;;;;;;;;;;5054116;28;20457;-76
2023/05/12 14:20:07;;;;;;;5.20;2.90;;;;;;;;;;5054540;28;20021;-77
2023/05/12 14:22:33;;;;;;;11.00;3.10;;;;;;;;;;5054489;28;20151;-74
2023/05/12 14:24:59;;;;;;;5.47;2.70;;;;;;;;;;5052851;28;20111;-74
2023/05/12 14:27:25;;;;;;;7.13;2.63;;;;;;;;;;5052510;28;20033;-75
2023/05/12 14:29:50;;;;;;;9.32;2.70;;;;;;;;;;5069311;28;20029;-72
2023/05/12 14:32:17;;;;;;;12.65;3.05;;;;;;;;;;5052050;28;20145;-75
2023/05/12 14:34:43;;;;;;;7.25;2.65;;;;;;;;;;5053319;28;20052;-75
2023/05/12 14:37:09;;;;;;;7.18;2.65;;;;;;;;;;5053396;28;20037;-72